To NAV CANADA Home Page Login to a new session Search on AWWS site Feedback and Comments Disclaimer Vers la page française équivalente Tips FAQ What's new on the site To the Forecasts and Observations / NOTAM section To "File a Flight Plan" website Publications and other links Update of the User's profile FIC Telephone Numbers My Weather Data Folder Route Weather Data Regional Weather Data Local Weather Data To the Forecasts and Observations / NOTAM section
Request Generated 07/26/2017 at 04:29:59 UTC . Weather information available at that time is displayed.

METAR/TAF

TORONTO/BILLY BISHOP TORONTO CITY AIRPORT/ON    (show WxCam)

METAR CYTZ 260400Z AUTO 00000KT 9SM CLR 18/15 A3022 RMK SLP234=
METAR CYTZ 260300Z AUTO 00000KT 9SM CLR 18/15 A3022 RMK SLP234=
METAR CYTZ 260200Z AUTO 00000KT 9SM CLR 19/15 A3022 RMK SLP236
DENSITY ALT 300FT=

TAF CYTZ 260138Z 2602/2702 VRB03KT P6SM FEW040 TEMPO 2602/2613 5SM HZ
FM261700 13008KT P6SM SCT090 BKN140
FM262300 14008KT P6SM -SHRA SCT060 BKN100 OVC150
RMK FCST BASED ON AUTO OBS. NXT FCST BY 260800Z=
Your time UTC time
Weather data provided by Environment Canada and NAV CANADA